Time;durP1;ratioP1;P1;durP2;ratioP2;P2;SDS_P1;SDS_P2;PMS_P1;PMS_P2;Temp;Humidity;BMP_temperature;BMP_pressure;BME280_temperature;BME280_humidity;BME280_pressure;Samples;Min_cycle;Max_cycle;Signal;HPM_P1;HPM_P2
2021/12/07 00:01:46;;;;;;;46.03;25.23;;;1.40;99.90;;;;;;5057330;28;20076;-80
2021/12/07 00:04:12;;;;;;;42.03;22.70;;;1.40;99.90;;;;;;5041023;28;20048;-82
2021/12/07 00:06:39;;;;;;;45.77;24.93;;;1.40;99.90;;;;;;5057331;28;20089;-80
2021/12/07 00:09:09;;;;;;;43.00;23.97;;;1.40;99.90;;;;;;5057396;28;20048;-82
2021/12/07 00:11:36;;;;;;;42.33;23.13;;;1.40;99.90;;;;;;5057510;28;20052;-79
2021/12/07 00:14:11;;;;;;;27.27;16.13;;;1.40;99.90;;;;;;5040966;28;20312;-80
2021/12/07 00:16:37;;;;;;;41.73;23.50;;;1.40;99.90;;;;;;5058131;28;20044;-82
2021/12/07 00:19:03;;;;;;;30.30;18.03;;;1.30;99.90;;;;;;5073864;28;20051;-82
2021/12/07 00:21:29;;;;;;;22.57;13.43;;;1.40;99.90;;;;;;5040532;28;20048;-80
2021/12/07 00:23:55;;;;;;;27.43;16.97;;;1.30;99.90;;;;;;5073978;28;20395;-80
2021/12/07 00:26:21;;;;;;;24.50;13.90;;;1.30;99.90;;;;;;5073933;28;20048;-80
2021/12/07 00:28:49;;;;;;;31.33;19.67;;;1.30;99.90;;;;;;5040372;28;20040;-80
2021/12/07 00:31:24;;;;;;;40.23;22.43;;;1.20;99.90;;;;;;5073531;28;20072;-80
2021/12/07 00:34:08;;;;;;;41.13;24.20;;;1.20;99.90;;;;;;5057148;28;20518;-82
2021/12/07 00:36:35;;;;;;;;;;;1.20;99.90;;;;;;5059609;28;20101;-82
2021/12/07 00:39:01;;;;;;;37.10;20.40;;;1.20;99.90;;;;;;5057098;28;20313;-82
2021/12/07 00:41:27;;;;;;;37.10;22.10;;;1.10;99.90;;;;;;5040158;28;20075;-83
2021/12/07 00:43:53;;;;;;;31.77;17.67;;;1.10;99.90;;;;;;5056877;28;20040;-82
2021/12/07 00:46:19;;;;;;;35.03;21.03;;;1.00;99.90;;;;;;5056639;28;20048;-80
2021/12/07 00:48:45;;;;;;;36.77;20.63;;;0.90;99.90;;;;;;5039906;28;20407;-82
2021/12/07 00:51:11;;;;;;;41.07;22.70;;;0.90;99.90;;;;;;5056643;28;20072;-82
2021/12/07 00:53:37;;;;;;;38.43;22.13;;;0.90;99.90;;;;;;5056392;28;20048;-82
2021/12/07 00:56:05;;;;;;;43.67;23.80;;;0.80;99.90;;;;;;5056542;28;20105;-82
2021/12/07 00:58:31;;;;;;;37.33;19.53;;;0.80;99.90;;;;;;5072083;28;20125;-81
2021/12/07 01:01:07;;;;;;;41.17;23.17;;;0.80;99.90;;;;;;5056587;28;20494;-82
2021/12/07 01:03:34;;;;;;;46.40;24.20;;;0.80;99.90;;;;;;5056146;28;20044;-80
2021/12/07 01:25:07;;;;;;;49.00;24.57;;;0.50;99.90;;;;;;5072438;28;20076;-80
2021/12/07 01:27:33;;;;;;;48.20;24.53;;;0.60;99.90;;;;;;5072331;28;20045;-81
2021/12/07 01:30:09;;;;;;;56.27;26.17;;;0.60;99.90;;;;;;5072352;28;20690;-81
2021/12/07 01:35:48;;;;;;;42.77;22.17;;;0.60;99.90;;;;;;5058330;28;20041;-80
2021/12/07 01:38:28;;;;;;;39.77;22.27;;;0.60;99.90;;;;;;5072094;28;20059;-83
2021/12/07 01:46:42;;;;;;;16.53;8.93;;;0.70;99.90;;;;;;5072203;28;20139;-82
2021/12/07 01:59:55;;;;;;;30.77;18.43;;;0.60;99.90;;;;;;5072033;28;20088;-80
2021/12/07 02:02:25;;;;;;;40.47;22.50;;;0.60;99.90;;;;;;5055050;28;20212;-80
2021/12/07 02:04:52;;;;;;;43.70;23.10;;;0.60;99.90;;;;;;5071737;28;20048;-82
2021/12/07 02:07:18;;;;;;;40.50;21.63;;;0.60;99.90;;;;;;5071592;28;20044;-80
2021/12/07 02:09:48;;;;;;;35.17;19.57;;;0.60;99.90;;;;;;5054688;28;20047;-82
2021/12/07 02:12:15;;;;;;;27.70;17.83;;;0.60;99.90;;;;;;5054695;28;20036;-80
2021/12/07 02:14:41;;;;;;;40.73;22.60;;;0.70;99.90;;;;;;5055367;28;20491;-82
2021/12/07 02:17:10;;;;;;;15.27;10.07;;;0.60;99.90;;;;;;5071415;28;20053;-83
2021/12/07 02:19:37;;;;;;;12.87;7.93;;;0.60;99.90;;;;;;5055076;28;20036;-80
2021/12/07 02:22:03;;;;;;;22.37;13.93;;;0.60;99.90;;;;;;5071702;28;20062;-83
2021/12/07 02:24:29;;;;;;;33.73;20.93;;;0.70;99.90;;;;;;5054857;28;20055;-80
2021/12/07 02:26:56;;;;;;;25.77;16.90;;;0.70;99.90;;;;;;5054938;28;20071;-80
2021/12/07 02:29:23;;;;;;;26.50;16.40;;;0.70;99.90;;;;;;5038047;28;20052;-82
2021/12/07 02:31:52;;;;;;;19.33;10.73;;;0.70;99.90;;;;;;5071752;28;20496;-82
2021/12/07 02:34:21;;;;;;;16.20;11.10;;;0.70;99.90;;;;;;5055228;28;20499;-83
2021/12/07 02:36:46;;;;;;;13.93;8.80;;;0.70;99.90;;;;;;5071323;28;20052;-83
2021/12/07 02:39:13;;;;;;;16.67;11.10;;;0.70;99.90;;;;;;5055056;28;20036;-80
2021/12/07 02:41:39;;;;;;;16.57;11.80;;;0.70;99.90;;;;;;5038109;28;20053;-82
2021/12/07 02:44:07;;;;;;;17.37;11.57;;;0.80;99.90;;;;;;5054609;28;20036;-80
2021/12/07 02:46:35;;;;;;;20.83;13.50;;;0.80;99.90;;;;;;5038300;28;20044;-81
2021/12/07 02:49:00;;;;;;;24.83;16.10;;;0.80;99.90;;;;;;5071568;28;20524;-80
2021/12/07 02:51:26;;;;;;;12.50;7.77;;;0.80;99.90;;;;;;5054682;28;20074;-80
2021/12/07 02:53:54;;;;;;;21.03;13.30;;;0.80;99.90;;;;;;5054742;28;20445;-80
2021/12/07 02:56:21;;;;;;;18.17;11.50;;;0.80;99.90;;;;;;5071200;28;20048;-80
2021/12/07 02:58:47;;;;;;;13.27;8.43;;;0.80;99.90;;;;;;5037733;28;20052;-80
2021/12/07 03:01:23;;;;;;;18.40;11.73;;;0.70;99.90;;;;;;5071172;28;20136;-81
2021/12/07 03:03:58;;;;;;;13.37;8.17;;;0.60;99.90;;;;;;5054758;28;20048;-83
2021/12/07 03:06:41;;;;;;;10.50;7.47;;;0.60;99.90;;;;;;5055800;28;20040;-80
2021/12/07 03:09:44;;;;;;;17.93;11.80;;;0.60;99.90;;;;;;5040517;28;20066;-81
2021/12/07 03:28:19;;;;;;;22.93;13.90;;;0.20;99.90;;;;;;5074477;28;20055;-80
2021/12/07 03:30:45;;;;;;;24.50;15.13;;;0.20;99.90;;;;;;5058006;28;20036;-80
2021/12/07 03:33:11;;;;;;;12.97;7.63;;;0.00;99.90;;;;;;5057967;28;20093;-81
2021/12/07 03:35:38;;;;;;;23.30;14.53;;;0.00;99.90;;;;;;5057975;28;20051;-80
2021/12/07 03:38:07;;;;;;;28.87;16.13;;;0.00;99.90;;;;;;5074348;28;20083;-82
2021/12/07 03:40:35;;;;;;;27.83;15.60;;;-0.10;99.90;;;;;;5057821;28;20040;-80
2021/12/07 03:43:02;;;;;;;15.53;10.17;;;-0.10;99.90;;;;;;5057866;28;20040;-83
2021/12/07 03:45:27;;;;;;;21.00;12.87;;;-0.10;99.90;;;;;;5058013;28;20045;-80
2021/12/07 03:47:55;;;;;;;29.80;15.63;;;-0.10;99.90;;;;;;5041014;28;20491;-83
2021/12/07 03:50:22;;;;;;;30.03;16.37;;;-0.10;99.90;;;;;;5057835;28;20407;-83
2021/12/07 03:52:49;;;;;;;32.53;17.43;;;-0.10;99.90;;;;;;5041293;28;20052;-83
2021/12/07 03:55:15;;;;;;;26.03;15.53;;;-0.20;99.90;;;;;;5074137;28;20055;-80
2021/12/07 03:57:41;;;;;;;24.07;13.70;;;-0.20;99.90;;;;;;5057009;28;20055;-80
2021/12/07 04:00:11;;;;;;;34.57;16.90;;;-0.10;99.90;;;;;;5074160;28;20044;-80
2021/12/07 04:02:40;;;;;;;33.33;17.03;;;-0.20;99.90;;;;;;5073949;28;20041;-81
2021/12/07 04:05:14;;;;;;;33.57;16.80;;;-0.10;99.90;;;;;;5057533;28;20051;-80
2021/12/07 04:07:41;;;;;;;28.20;15.57;;;-0.10;99.90;;;;;;5057553;28;20479;-84
2021/12/07 04:10:10;;;;;;;36.27;17.83;;;-0.30;99.90;;;;;;5057580;28;20045;-80
2021/12/07 04:12:36;;;;;;;35.30;17.07;;;-0.30;99.90;;;;;;5057134;28;20048;-83
2021/12/07 04:15:04;;;;;;;33.70;16.60;;;-0.30;99.90;;;;;;5073795;28;20449;-83
2021/12/07 04:17:30;;;;;;;20.03;11.13;;;-0.20;99.90;;;;;;5073635;28;20495;-83
2021/12/07 04:19:55;;;;;;;33.60;17.73;;;0.00;99.90;;;;;;5057048;28;20094;-83
2021/12/07 04:22:21;;;;;;;32.30;17.40;;;0.10;99.90;;;;;;5073487;28;20406;-81
2021/12/07 04:24:47;;;;;;;30.57;16.77;;;0.20;99.90;;;;;;5040709;28;20238;-81
2021/12/07 04:27:13;;;;;;;26.43;14.57;;;0.30;99.90;;;;;;5056772;28;20045;-83
2021/12/07 04:29:39;;;;;;;28.23;15.40;;;0.40;99.90;;;;;;5057108;28;20185;-80
2021/12/07 04:32:05;;;;;;;24.70;14.83;;;0.40;99.90;;;;;;5040138;28;20076;-80
2021/12/07 04:34:31;;;;;;;14.97;9.27;;;0.50;99.90;;;;;;5056149;28;20052;-80
2021/12/07 04:36:57;;;;;;;33.43;16.80;;;0.50;99.90;;;;;;5056567;28;20562;-83
2021/12/07 04:39:22;;;;;;;32.47;17.17;;;0.60;99.90;;;;;;5056620;28;20101;-82
2021/12/07 04:41:50;;;;;;;21.73;11.23;;;0.60;99.90;;;;;;5039920;28;20080;-83
2021/12/07 04:44:15;;;;;;;27.77;14.20;;;0.60;99.90;;;;;;5073392;28;20044;-82
2021/12/07 04:47:05;;;;;;;27.83;14.57;;;0.80;99.90;;;;;;5073262;28;20546;-83
2021/12/07 04:57:44;;;;;;;16.30;10.07;;;0.70;99.90;;;;;;5072665;28;20106;-80
2021/12/07 05:00:23;;;;;;;22.38;11.98;;;0.70;99.90;;;;;;5025627;28;20398;-83
2021/12/07 05:02:57;;;;;;;27.33;12.77;;;0.90;99.90;;;;;;5056150;28;20127;-80
2021/12/07 05:05:28;;;;;;;21.47;12.80;;;0.80;99.90;;;;;;5056463;28;20403;-80
2021/12/07 05:07:57;;;;;;;19.30;11.37;;;0.80;99.90;;;;;;5073021;28;20071;-83
2021/12/07 05:10:31;;;;;;;24.07;13.63;;;0.80;99.90;;;;;;5056786;28;20441;-83
2021/12/07 05:18:38;;;;;;;24.00;11.80;;;0.70;99.90;;;;;;5056390;28;20499;-83
2021/12/07 05:24:06;;;;;;;12.40;7.50;;;0.80;99.90;;;;;;5072858;28;20548;-82
2021/12/07 05:37:44;;;;;;;26.30;12.97;;;0.90;99.90;;;;;;5058220;28;20063;-80
2021/12/07 05:40:20;;;;;;;22.43;12.20;;;1.00;99.90;;;;;;5057366;28;20090;-80
2021/12/07 05:42:47;;;;;;;26.10;12.93;;;1.20;99.90;;;;;;5071830;28;20041;-80
2021/12/07 05:45:17;;;;;;;22.47;10.90;;;1.10;99.90;;;;;;5071762;28;20044;-83
2021/12/07 05:47:43;;;;;;;18.50;9.43;;;1.10;99.90;;;;;;5071829;28;20054;-83
2021/12/07 05:50:12;;;;;;;14.13;6.83;;;1.40;99.90;;;;;;5055223;28;20048;-82
2021/12/07 05:52:38;;;;;;;7.50;4.53;;;1.60;99.90;;;;;;5071860;28;20067;-81
2021/12/07 05:55:05;;;;;;;11.93;8.30;;;1.80;99.90;;;;;;5072367;28;20127;-83
2021/12/07 05:57:31;;;;;;;18.90;7.60;;;1.90;99.90;;;;;;5054677;28;20052;-81
2021/12/07 05:59:57;;;;;;;13.17;7.03;;;2.00;99.90;;;;;;5038799;28;20087;-82
2021/12/07 06:02:23;;;;;;;11.57;5.47;;;2.00;99.90;;;;;;5055248;28;20487;-83
2021/12/07 06:04:49;;;;;;;11.73;6.20;;;2.00;99.90;;;;;;5055076;28;20182;-81
2021/12/07 06:07:14;;;;;;;12.77;7.00;;;1.90;99.90;;;;;;5071413;28;20083;-81
2021/12/07 06:09:40;;;;;;;13.50;7.20;;;1.80;99.90;;;;;;5055045;28;20430;-82
2021/12/07 06:12:06;;;;;;;20.27;9.10;;;1.80;99.90;;;;;;5038429;28;20040;-80
2021/12/07 06:14:42;;;;;;;9.53;4.67;;;1.80;99.90;;;;;;5055168;28;20131;-83
2021/12/07 06:17:08;;;;;;;17.00;7.80;;;1.90;99.90;;;;;;5039817;28;20040;-81
2021/12/07 06:19:34;;;;;;;22.57;7.60;;;2.00;99.90;;;;;;5072029;28;20510;-83
2021/12/07 06:21:59;;;;;;;17.23;7.87;;;2.10;99.90;;;;;;5054836;28;20044;-82
2021/12/07 06:24:25;;;;;;;11.97;4.93;;;2.00;99.90;;;;;;5038921;28;20040;-84
2021/12/07 06:26:51;;;;;;;17.47;7.97;;;2.00;99.90;;;;;;5071538;28;20086;-81
2021/12/07 06:29:17;;;;;;;15.80;7.23;;;2.00;99.90;;;;;;5038461;28;20302;-81
2021/12/07 06:31:43;;;;;;;18.77;8.83;;;2.10;99.90;;;;;;5054862;28;20041;-83
2021/12/07 06:34:10;;;;;;;16.13;7.57;;;2.00;99.90;;;;;;5054784;28;20040;-83
2021/12/07 06:36:39;;;;;;;20.23;9.77;;;1.90;99.90;;;;;;5071467;28;20131;-83
2021/12/07 06:39:07;;;;;;;16.70;8.77;;;1.70;99.90;;;;;;5038417;28;20047;-81
2021/12/07 06:41:33;;;;;;;11.90;5.87;;;1.60;99.90;;;;;;5038000;28;20055;-81
2021/12/07 06:43:59;;;;;;;18.00;9.57;;;1.50;99.90;;;;;;5038283;28;20135;-81
2021/12/07 06:46:25;;;;;;;18.13;10.10;;;1.40;99.90;;;;;;5071391;28;20485;-83
2021/12/07 06:48:51;;;;;;;17.00;8.03;;;1.30;99.90;;;;;;5021757;28;20082;-80
2021/12/07 06:51:16;;;;;;;16.30;7.93;;;1.20;99.90;;;;;;5054652;28;20569;-81
2021/12/07 06:53:42;;;;;;;15.40;7.80;;;1.00;99.90;;;;;;5071709;28;20402;-83
2021/12/07 06:56:09;;;;;;;18.77;8.97;;;0.90;99.90;;;;;;5054719;28;20044;-84
2021/12/07 06:58:36;;;;;;;14.77;7.63;;;0.80;99.90;;;;;;5058355;28;20479;-80
2021/12/07 07:01:06;;;;;;;24.07;8.70;;;0.80;99.90;;;;;;5075174;28;20052;-81
2021/12/07 07:03:33;;;;;;;14.77;7.93;;;0.80;99.90;;;;;;5075084;28;20048;-80
2021/12/07 07:05:59;;;;;;;16.77;8.23;;;0.80;99.90;;;;;;5075256;28;20036;-84
2021/12/07 07:08:25;;;;;;;17.90;7.97;;;1.00;99.90;;;;;;5058357;28;20153;-84
2021/12/07 07:10:51;;;;;;;23.50;9.23;;;0.80;99.90;;;;;;5058441;28;20041;-80
2021/12/07 07:13:16;;;;;;;23.23;7.93;;;0.80;99.90;;;;;;5058236;28;20037;-83
2021/12/07 07:15:43;;;;;;;15.73;7.87;;;0.80;99.90;;;;;;5075214;28;20511;-83
2021/12/07 07:18:09;;;;;;;24.90;9.23;;;0.80;99.90;;;;;;5074771;28;20051;-80
2021/12/07 07:20:35;;;;;;;22.57;10.17;;;0.70;99.90;;;;;;5058538;28;20497;-82
2021/12/07 07:23:01;;;;;;;24.57;9.30;;;0.70;99.90;;;;;;5058223;28;20419;-80
2021/12/07 07:25:27;;;;;;;22.63;8.93;;;0.50;99.90;;;;;;5058400;28;20050;-81
2021/12/07 07:27:52;;;;;;;26.37;10.20;;;0.40;99.90;;;;;;5074534;28;20041;-80
2021/12/07 07:30:19;;;;;;;30.00;9.67;;;0.30;99.90;;;;;;5041503;28;20415;-83
2021/12/07 07:32:45;;;;;;;22.73;9.03;;;0.30;99.90;;;;;;5074530;28;20080;-81
2021/12/07 07:35:12;;;;;;;40.80;20.60;;;0.30;99.90;;;;;;5041429;28;20037;-80
2021/12/07 07:37:39;;;;;;;32.83;10.67;;;0.20;99.90;;;;;;5024722;28;20040;-84
2021/12/07 07:40:09;;;;;;;23.23;10.33;;;0.20;99.90;;;;;;5074777;28;20623;-81
2021/12/07 07:42:35;;;;;;;26.70;9.27;;;0.10;99.90;;;;;;5074409;28;20049;-81
2021/12/07 07:45:01;;;;;;;21.07;9.73;;;0.10;99.90;;;;;;5057730;28;20066;-83
2021/12/07 07:47:27;;;;;;;27.00;9.97;;;0.10;99.90;;;;;;5057585;28;20048;-80
2021/12/07 07:49:52;;;;;;;26.80;9.43;;;0.00;99.90;;;;;;5041049;28;20499;-84
2021/12/07 07:52:18;;;;;;;34.37;10.73;;;0.10;99.90;;;;;;5057649;28;20045;-83
2021/12/07 07:54:44;;;;;;;23.20;9.03;;;0.00;99.90;;;;;;5024442;28;20109;-83
2021/12/07 07:57:10;;;;;;;27.07;9.83;;;-0.10;99.90;;;;;;5057672;28;20080;-84
2021/12/07 07:59:38;;;;;;;26.90;10.00;;;0.00;99.90;;;;;;5040918;28;20067;-84
2021/12/07 08:02:05;;;;;;;32.07;10.97;;;0.10;99.90;;;;;;5057891;28;20396;-83
2021/12/07 08:04:30;;;;;;;33.93;11.00;;;0.00;99.90;;;;;;5057250;28;20056;-84
2021/12/07 08:06:56;;;;;;;41.23;11.73;;;0.00;99.90;;;;;;5057207;28;20041;-84
2021/12/07 08:09:22;;;;;;;39.13;12.40;;;0.00;99.90;;;;;;5072689;28;20399;-81
2021/12/07 08:11:47;;;;;;;32.67;12.10;;;0.00;99.90;;;;;;5040836;28;20410;-83
2021/12/07 08:14:15;;;;;;;35.37;12.20;;;0.00;99.90;;;;;;5024211;28;20044;-81
2021/12/07 08:16:41;;;;;;;39.43;12.50;;;0.00;99.90;;;;;;5073618;28;20051;-84
2021/12/07 08:19:07;;;;;;;40.90;12.13;;;0.00;99.90;;;;;;5040667;28;20041;-80
2021/12/07 08:21:33;;;;;;;38.47;12.50;;;0.00;99.90;;;;;;5057249;28;20127;-84
2021/12/07 08:23:58;;;;;;;41.37;13.70;;;0.00;99.90;;;;;;5073519;28;20056;-81
2021/12/07 08:26:25;;;;;;;43.80;12.37;;;0.10;99.90;;;;;;5040933;28;20140;-83
2021/12/07 08:28:53;;;;;;;33.10;12.60;;;0.20;99.90;;;;;;5040683;28;20492;-80
2021/12/07 08:31:19;;;;;;;44.60;12.50;;;0.20;99.90;;;;;;5073393;28;20044;-83
2021/12/07 08:33:45;;;;;;;35.93;11.60;;;0.20;99.90;;;;;;5073508;28;20044;-80
2021/12/07 08:36:11;;;;;;;38.20;11.43;;;0.20;99.90;;;;;;5040027;28;20047;-80
2021/12/07 08:38:37;;;;;;;41.33;12.40;;;0.20;99.90;;;;;;5056942;28;20045;-84
2021/12/07 08:41:03;;;;;;;37.43;11.17;;;0.20;99.90;;;;;;5056583;28;20039;-81
2021/12/07 08:43:31;;;;;;;33.40;11.40;;;0.40;99.90;;;;;;5056991;28;20055;-84
2021/12/07 08:45:59;;;;;;;41.90;15.03;;;0.40;99.90;;;;;;5056591;28;20051;-84
2021/12/07 08:48:26;;;;;;;44.27;12.50;;;0.50;99.90;;;;;;5040270;28;20365;-80
2021/12/07 08:50:52;;;;;;;31.30;10.23;;;0.50;99.90;;;;;;5073018;28;20036;-84
2021/12/07 08:53:22;;;;;;;24.93;10.57;;;0.60;99.90;;;;;;5056326;28;20049;-80
2021/12/07 09:01:21;;;;;;;24.10;8.13;;;1.00;99.90;;;;;;5045080;28;20566;-84
2021/12/07 09:03:48;;;;;;;27.33;7.77;;;1.00;99.90;;;;;;5056495;28;20098;-84
2021/12/07 09:06:14;;;;;;;28.33;9.83;;;1.10;99.90;;;;;;5039633;28;20045;-84
2021/12/07 09:08:40;;;;;;;15.73;4.87;;;1.40;99.90;;;;;;5055795;28;20049;-80
2021/12/07 09:11:07;;;;;;;19.30;8.27;;;1.20;99.90;;;;;;5056062;28;20044;-84
2021/12/07 09:13:34;;;;;;;22.17;7.10;;;1.30;99.90;;;;;;5056108;28;20040;-84
2021/12/07 09:16:00;;;;;;;26.63;8.40;;;1.30;99.90;;;;;;5056079;28;20052;-83
2021/12/07 09:18:26;;;;;;;24.53;7.73;;;1.30;99.90;;;;;;5056161;28;20475;-84
2021/12/07 09:20:53;;;;;;;17.67;8.30;;;1.40;99.90;;;;;;5055476;28;20048;-80
2021/12/07 09:23:19;;;;;;;17.47;7.10;;;1.40;99.90;;;;;;5072631;28;20067;-81
2021/12/07 09:25:45;;;;;;;21.33;6.30;;;1.40;99.90;;;;;;5072743;28;20332;-83
2021/12/07 09:28:11;;;;;;;9.33;3.23;;;1.50;99.90;;;;;;5039303;28;20102;-80
2021/12/07 09:30:38;;;;;;;14.90;5.20;;;1.70;99.90;;;;;;5055626;28;20044;-84
2021/12/07 09:33:04;;;;;;;10.10;3.93;;;1.90;99.90;;;;;;5055893;28;20439;-83
2021/12/07 09:35:30;;;;;;;12.53;3.43;;;2.00;99.90;;;;;;5039072;28;20051;-84
2021/12/07 09:37:56;;;;;;;10.97;3.43;;;2.20;99.90;;;;;;5071920;28;20423;-84
2021/12/07 09:40:24;;;;;;;10.40;3.70;;;2.40;99.90;;;;;;5055634;28;20049;-81
2021/12/07 09:42:52;;;;;;;17.33;6.33;;;2.80;99.90;;;;;;5038755;28;20044;-81
2021/12/07 09:45:19;;;;;;;10.50;3.83;;;2.60;99.90;;;;;;5072032;28;20088;-83
2021/12/07 09:47:46;;;;;;;19.77;6.50;;;2.70;99.90;;;;;;5072112;28;20501;-81
2021/12/07 09:50:18;;;;;;;18.30;5.83;;;2.90;99.90;;;;;;5055558;28;20087;-83
2021/12/07 09:52:45;;;;;;;13.00;4.63;;;3.00;99.90;;;;;;5072294;28;20036;-81
2021/12/07 09:55:12;;;;;;;14.83;4.60;;;3.00;99.90;;;;;;5072151;28;20044;-81
2021/12/07 09:57:38;;;;;;;19.53;4.07;;;2.90;99.90;;;;;;5071356;28;20063;-81
2021/12/07 10:00:09;;;;;;;10.47;4.23;;;2.90;99.90;;;;;;5055637;28;20045;-81
2021/12/07 10:02:35;;;;;;;13.40;3.77;;;3.00;99.90;;;;;;5072028;28;20044;-81
2021/12/07 10:05:00;;;;;;;10.47;3.37;;;3.00;99.90;;;;;;5022286;28;20045;-84
2021/12/07 10:07:26;;;;;;;15.30;5.30;;;3.00;99.90;;;;;;5071863;28;20051;-84
2021/12/07 10:09:52;;;;;;;11.77;4.00;;;3.20;99.90;;;;;;5055090;28;20041;-81
2021/12/07 10:12:20;;;;;;;15.17;2.93;;;3.10;99.90;;;;;;5054875;28;20054;-81
2021/12/07 10:14:46;;;;;;;14.17;4.23;;;3.10;99.90;;;;;;5038508;28;20040;-81
2021/12/07 10:17:12;;;;;;;10.23;2.13;;;3.20;99.90;;;;;;5071379;28;20048;-82
2021/12/07 10:19:44;;;;;;;9.40;1.77;;;3.30;99.90;;;;;;5038442;28;20451;-81
2021/12/07 10:22:19;;;;;;;9.67;3.03;;;3.40;99.90;;;;;;5071566;28;20099;-81
2021/12/07 10:24:53;;;;;;;8.68;2.42;;;3.50;99.90;;;;;;5071579;28;20044;-83
2021/12/07 10:27:40;;;;;;;16.43;4.17;;;3.60;99.90;;;;;;5054669;28;20040;-83
2021/12/07 10:30:10;;;;;;;16.00;4.97;;;3.70;99.90;;;;;;5054857;28;20055;-83
2021/12/07 10:32:40;;;;;;;10.82;3.47;;;3.90;99.90;;;;;;5070560;28;20090;-81
2021/12/07 10:35:33;;;;;;;7.00;3.25;;;3.90;99.90;;;;;;5071629;28;20495;-81
2021/12/07 10:38:14;;;;;;;6.93;3.65;;;4.00;99.90;;;;;;5071244;28;20372;-83
2021/12/07 10:40:58;;;;;;;24.25;6.65;;;4.00;99.90;;;;;;5054648;28;20049;-81
2021/12/07 10:43:52;;;;;;;13.05;4.38;;;4.10;99.90;;;;;;5071679;28;20063;-82
2021/12/07 10:46:50;;;;;;;16.25;4.88;;;4.20;99.90;;;;;;5054845;28;20514;-81
2021/12/07 10:49:46;;;;;;;10.43;4.57;;;4.20;99.90;;;;;;5071087;28;20101;-83
2021/12/07 10:52:20;;;;;;;19.70;7.57;;;4.20;99.90;;;;;;5054623;28;20044;-81
2021/12/07 10:55:05;;;;;;;18.27;5.60;;;4.30;99.90;;;;;;5054892;28;20495;-83
2021/12/07 10:57:38;;;;;;;14.80;5.72;;;4.30;99.90;;;;;;5071055;28;20499;-81
2021/12/07 11:00:25;;;;;;;18.52;6.10;;;4.40;99.90;;;;;;5054578;28;20087;-81
2021/12/07 11:02:56;;;;;;;8.93;3.85;;;4.50;99.90;;;;;;5071249;28;20048;-81
2021/12/07 11:05:39;;;;;;;8.23;3.28;;;4.60;99.90;;;;;;5054554;28;20091;-82
2021/12/07 11:08:06;;;;;;;12.97;3.37;;;4.80;99.90;;;;;;5071140;28;20037;-81
2021/12/07 11:10:43;;;;;;;9.23;2.83;;;4.70;99.90;;;;;;5071469;28;20049;-82
2021/12/07 11:13:34;;;;;;;11.32;3.60;;;4.70;99.90;;;;;;5054743;28;20368;-83
2021/12/07 11:16:03;;;;;;;13.18;3.25;;;4.70;99.90;;;;;;5071361;28;20096;-83
2021/12/07 11:18:36;;;;;;;16.70;3.50;;;4.70;99.90;;;;;;5071328;28;20140;-82
2021/12/07 11:21:14;;;;;;;10.68;3.03;;;4.70;99.90;;;;;;5071271;28;20502;-81
2021/12/07 11:23:49;;;;;;;9.15;2.75;;;4.70;99.90;;;;;;5054258;28;20058;-82
2021/12/07 11:31:56;;;;;;;12.00;4.55;;;4.90;99.90;;;;;;5070992;28;20122;-82
2021/12/07 11:34:36;;;;;;;18.30;7.38;;;5.00;99.90;;;;;;5070804;28;20075;-83
2021/12/07 11:37:09;;;;;;;12.43;4.55;;;5.10;99.90;;;;;;5070842;28;20102;-83
2021/12/07 11:39:48;;;;;;;10.40;2.35;;;5.10;99.90;;;;;;5071168;28;20051;-81
2021/12/07 11:42:16;;;;;;;21.15;4.88;;;5.20;99.90;;;;;;5071149;28;20056;-83
2021/12/07 11:44:53;;;;;;;9.15;2.30;;;5.30;99.90;;;;;;5074493;28;20506;-83
2021/12/07 11:47:31;;;;;;;12.35;3.35;;;5.30;99.90;;;;;;5057780;28;20043;-83
2021/12/07 11:50:01;;;;;;;13.38;3.03;;;5.30;99.90;;;;;;5074316;28;20044;-81
2021/12/07 11:52:27;;;;;;;11.00;3.10;;;5.40;99.90;;;;;;5074106;28;20044;-81
2021/12/07 11:54:54;;;;;;;12.65;3.20;;;5.40;99.90;;;;;;5057723;28;20059;-83
2021/12/07 11:57:21;;;;;;;14.95;3.88;;;5.50;99.90;;;;;;5057282;28;20043;-83
2021/12/07 11:59:48;;;;;;;17.05;2.70;;;5.70;99.90;;;;;;5040980;28;20067;-81
2021/12/07 12:02:18;;;;;;;11.02;2.92;;;5.60;99.90;;;;;;5057757;28;20484;-83
2021/12/07 12:04:45;;;;;;;13.15;3.38;;;5.80;99.90;;;;;;5074080;28;20082;-81
2021/12/07 12:07:11;;;;;;;10.52;2.58;;;5.70;99.90;;;;;;5040907;28;20094;-83
2021/12/07 12:09:48;;;;;;;7.22;1.90;;;5.70;99.90;;;;;;5040857;28;20044;-83
2021/12/07 12:12:34;;;;;;;16.20;3.55;;;5.80;92.70;;;;;;5057087;28;20051;-83
2021/12/07 12:15:30;;;;;;;11.27;2.30;;;5.90;62.50;;;;;;5057506;28;20549;-83
2021/12/07 12:18:24;;;;;;;13.40;2.40;;;5.90;28.70;;;;;;5073709;28;20051;-83
2021/12/07 12:20:56;;;;;;;;;;;6.00;65.00;;;;;;5057552;28;20044;-81
2021/12/07 12:23:43;;;;;;;11.27;2.42;;;6.00;19.00;;;;;;5073960;28;20355;-82
2021/12/07 12:26:11;;;;;;;14.18;3.17;;;6.50;74.00;;;;;;5074059;28;20488;-83
2021/12/07 12:28:47;;;;;;;9.57;2.45;;;7.10;10.20;;;;;;5056901;28;20036;-83
2021/12/07 12:31:14;;;;;;;13.90;2.67;;;7.10;1.00;;;;;;5073800;28;20417;-83
2021/12/07 12:33:49;;;;;;;12.40;2.55;;;7.50;15.90;;;;;;5073494;28;20045;-83
